Aeroporto :
LOGIN :

Iscrizione | Disclaimer

   EN    FR    IT 

 










Sommario :    VFR   VFR Marginale   IFR   IFR Intensivo   IFR Molto Intensivo
Visibilità : 
Base nubi : 
>= 8 km
>= 3000ft
5 / 8 km
1000 / 3000 ft
1500m / 5 km
500 / 1000 ft
800 / 1500m
200 / 500 ft
< 800m
< 200 ft
Simboli :   Temporali  Nebbia  Neve Forte  Precipitazioni Forti  Vento > 20 kt
SIGMETs :   Varie  Temporali  Ghiacco  Turbolenza  Onda orograficha  Ceneri Vulcaniche






- Altitudine del aeroporto : 1233 ft
- Codice IATA : OSD


ESNZ - Östersund

ULTIMO METAR :
  • 111920Z 09007KT 0800 R12/P1500N R30/P1500N SN VV014 M06/M07 Q1006

METARs OBSOLETI :
  • 111850Z 10007KT 2400 SN VV014 M06/M07 Q1006
  • 111820Z 10008KT 2000 SN VV010 M06/M07 Q1006
  • 111750Z 10007KT 2300 -SN VV015 M06/M08 Q1006
  • 111720Z 09008KT 1500 SN VV008 M07/M08 Q1007
  • 111650Z 08008KT 1200 R12/P1500N R30/P1500N SN VV006 M07/M08 Q1007

TAF TAF ESNZ
Valido dal 11 a 18 ore il 11 a 23 ore UTC


111730Z 1118/1123 13008KT 5000 -SN BKN008
TEMPO 1118/1123 0700 SN VV015



MetMap, La meteo Aeronautica in un colpo d'occhio ! - Copyright ORBIFLY Dicembre 2007 - Disclaimer

ORBIFLY MET'MAP TEAM :

Programmazione e sviluppo : Alexandra Zaïnal
Concezione e sviluppo : Baudouin d'Aumeries
Co-Programmazione e sviluppo : Marc-Olivier Méhu
Supporto tecnico e logistico : Manuel Goepfert
Aiuto per la traduzione : Arnaldo La Scala

Contatto : metmap@orbifly.com




FONTI E CREDITI :

   NOAA